sensor_id;sensor_type;location;lat;lon;timestamp;pressure;altitude;pressure_sealevel;temperature;humidity
7754;BME280;3921;42.266;23.122;2023-05-22T00:26:08;94814.44;;;15.24;63.00
7754;BME280;3921;42.266;23.122;2023-05-22T00:28:39;94791.78;;;15.21;62.73
7754;BME280;3921;42.266;23.122;2023-05-22T00:31:42;95008.78;;;16.40;62.91
7754;BME280;3921;42.266;23.122;2023-05-22T00:34:19;94814.72;;;15.16;62.92
7754;BME280;3921;42.266;23.122;2023-05-22T00:37:01;94810.81;;;15.31;62.65
7754;BME280;3921;42.266;23.122;2023-05-22T00:39:36;94823.94;;;15.17;62.53
7754;BME280;3921;42.266;23.122;2023-05-22T00:46:12;94857.50;;;15.47;62.24
7754;BME280;3921;42.266;23.122;2023-05-22T00:48:46;94779.03;;;14.99;62.37
7754;BME280;3921;42.266;23.122;2023-05-22T00:51:22;94850.91;;;15.43;62.75
7754;BME280;3921;42.266;23.122;2023-05-22T00:58:07;94804.47;;;15.19;63.68
7754;BME280;3921;42.266;23.122;2023-05-22T02:17:52;94837.69;;;15.10;63.38
7754;BME280;3921;42.266;23.122;2023-05-22T02:20:34;94835.22;;;15.08;63.89
7754;BME280;3921;42.266;23.122;2023-05-22T02:23:15;94869.03;;;15.31;64.15
7754;BME280;3921;42.266;23.122;2023-05-22T02:25:52;94863.69;;;15.13;64.54
7754;BME280;3921;42.266;23.122;2023-05-22T02:28:39;94771.66;;;14.68;64.29
7754;BME280;3921;42.266;23.122;2023-05-22T02:31:10;95014.75;;;16.14;64.19
7754;BME280;3921;42.266;23.122;2023-05-22T02:33:39;94791.16;;;14.89;63.91
7754;BME280;3921;42.266;23.122;2023-05-22T02:36:07;95114.72;;;16.81;64.78
7754;BME280;3921;42.266;23.122;2023-05-22T02:38:35;94970.22;;;15.84;65.38
7754;BME280;3921;42.266;23.122;2023-05-22T02:41:03;95000.72;;;16.06;65.18
7754;BME280;3921;42.266;23.122;2023-05-22T02:43:30;94979.84;;;15.74;64.82
7754;BME280;3921;42.266;23.122;2023-05-22T02:45:57;95062.72;;;16.44;64.47
7754;BME280;3921;42.266;23.122;2023-05-22T02:48:25;94782.66;;;14.67;64.75
7754;BME280;3921;42.266;23.122;2023-05-22T02:50:55;95135.41;;;16.93;65.13
7754;BME280;3921;42.266;23.122;2023-05-22T02:53:22;94878.03;;;15.14;64.98
7754;BME280;3921;42.266;23.122;2023-05-22T02:56:06;94741.94;;;14.49;66.19
7754;BME280;3921;42.266;23.122;2023-05-22T02:58:35;94854.31;;;15.17;66.91
7754;BME280;3921;42.266;23.122;2023-05-22T03:01:02;94931.94;;;15.41;66.83
7754;BME280;3921;42.266;23.122;2023-05-22T03:03:31;94872.19;;;15.12;67.05
7754;BME280;3921;42.266;23.122;2023-05-22T03:06:00;94914.13;;;15.45;67.07
7754;BME280;3921;42.266;23.122;2023-05-22T03:08:29;94783.66;;;14.63;67.81
7754;BME280;3921;42.266;23.122;2023-05-22T03:10:57;94833.28;;;14.90;67.71
7754;BME280;3921;42.266;23.122;2023-05-22T03:13:24;94905.47;;;15.27;68.17
7754;BME280;3921;42.266;23.122;2023-05-22T03:15:52;94796.44;;;14.56;68.39
7754;BME280;3921;42.266;23.122;2023-05-22T03:18:19;94803.75;;;14.66;68.22
7754;BME280;3921;42.266;23.122;2023-05-22T03:20:47;95104.25;;;16.40;68.22
7754;BME280;3921;42.266;23.122;2023-05-22T03:23:16;94969.31;;;15.60;68.05
7754;BME280;3921;42.266;23.122;2023-05-22T03:25:47;94817.34;;;14.63;67.93
7754;BME280;3921;42.266;23.122;2023-05-22T03:28:17;95266.94;;;17.52;68.59
7754;BME280;3921;42.266;23.122;2023-05-22T03:30:45;94776.91;;;14.35;67.65
7754;BME280;3921;42.266;23.122;2023-05-22T03:33:13;94972.09;;;15.52;67.55
7754;BME280;3921;42.266;23.122;2023-05-22T03:35:41;94828.13;;;14.68;67.37
7754;BME280;3921;42.266;23.122;2023-05-22T03:38:09;94829.81;;;14.68;67.19
7754;BME280;3921;42.266;23.122;2023-05-22T03:40:38;94849.75;;;14.77;67.59
7754;BME280;3921;42.266;23.122;2023-05-22T03:43:06;94811.75;;;14.53;67.42
7754;BME280;3921;42.266;23.122;2023-05-22T03:45:33;95139.03;;;16.61;67.57
7754;BME280;3921;42.266;23.122;2023-05-22T03:48:00;95101.38;;;16.51;67.01
7754;BME280;3921;42.266;23.122;2023-05-22T03:50:28;94851.41;;;14.78;66.39
7754;BME280;3921;42.266;23.122;2023-05-22T03:52:58;94853.56;;;14.64;66.39
7754;BME280;3921;42.266;23.122;2023-05-22T03:55:25;94845.31;;;14.83;65.52
7754;BME280;3921;42.266;23.122;2023-05-22T03:57:56;94896.13;;;15.02;65.81
7754;BME280;3921;42.266;23.122;2023-05-22T04:00:24;94862.13;;;14.84;66.58
7754;BME280;3921;42.266;23.122;2023-05-22T04:02:51;94974.78;;;15.48;66.43
7754;BME280;3921;42.266;23.122;2023-05-22T04:05:19;94857.97;;;14.83;66.18
7754;BME280;3921;42.266;23.122;2023-05-22T04:07:47;94835.84;;;14.64;66.14
7754;BME280;3921;42.266;23.122;2023-05-22T04:10:52;94820.91;;;14.56;66.76
7754;BME280;3921;42.266;23.122;2023-05-22T04:20:04;94981.34;;;15.80;66.45
7754;BME280;3921;42.266;23.122;2023-05-22T04:22:42;94870.16;;;14.97;66.44
7754;BME280;3921;42.266;23.122;2023-05-22T04:28:51;94837.78;;;14.82;65.78
7754;BME280;3921;42.266;23.122;2023-05-22T04:31:34;95258.59;;;17.49;66.92
7754;BME280;3921;42.266;23.122;2023-05-22T04:34:06;94884.34;;;15.01;67.26
7754;BME280;3921;42.266;23.122;2023-05-22T04:36:53;94840.03;;;14.91;67.15
7754;BME280;3921;42.266;23.122;2023-05-22T04:40:13;94859.84;;;15.03;66.55
7754;BME280;3921;42.266;23.122;2023-05-22T05:01:38;95141.13;;;16.98;72.20
7754;BME280;3921;42.266;23.122;2023-05-22T05:17:43;94956.16;;;15.75;70.80
7754;BME280;3921;42.266;23.122;2023-05-22T05:20:17;94942.81;;;15.45;70.31
7754;BME280;3921;42.266;23.122;2023-05-22T05:22:57;94918.44;;;15.43;69.01
7754;BME280;3921;42.266;23.122;2023-05-22T05:25:30;95112.97;;;16.58;68.94
7754;BME280;3921;42.266;23.122;2023-05-22T05:28:03;95076.19;;;16.21;68.77
7754;BME280;3921;42.266;23.122;2023-05-22T05:30:35;94873.31;;;15.04;68.34
7754;BME280;3921;42.266;23.122;2023-05-22T05:33:05;94880.50;;;15.16;68.57
7754;BME280;3921;42.266;23.122;2023-05-22T05:35:47;95039.22;;;16.15;69.14
7754;BME280;3921;42.266;23.122;2023-05-22T05:59:12;95125.91;;;16.75;69.28
7754;BME280;3921;42.266;23.122;2023-05-22T06:01:43;94854.25;;;14.94;70.60
7754;BME280;3921;42.266;23.122;2023-05-22T06:04:29;95001.69;;;16.02;70.96
7754;BME280;3921;42.266;23.122;2023-05-22T06:07:11;94879.41;;;15.23;71.56
7754;BME280;3921;42.266;23.122;2023-05-22T06:09:52;94913.41;;;15.41;72.06
7754;BME280;3921;42.266;23.122;2023-05-22T06:12:19;94868.16;;;15.32;71.98
7754;BME280;3921;42.266;23.122;2023-05-22T06:17:23;95153.63;;;17.03;71.99
7754;BME280;3921;42.266;23.122;2023-05-22T06:34:12;94875.50;;;15.39;66.88
7754;BME280;3921;42.266;23.122;2023-05-22T06:36:44;94948.25;;;15.84;67.26
7754;BME280;3921;42.266;23.122;2023-05-22T06:39:11;94906.19;;;15.55;67.30
7754;BME280;3921;42.266;23.122;2023-05-22T06:41:38;95225.31;;;17.57;67.45
7754;BME280;3921;42.266;23.122;2023-05-22T06:44:06;95229.94;;;17.69;67.44
7754;BME280;3921;42.266;23.122;2023-05-22T06:46:36;95183.66;;;17.39;66.96
7754;BME280;3921;42.266;23.122;2023-05-22T06:49:04;95045.69;;;16.48;65.57
7754;BME280;3921;42.266;23.122;2023-05-22T06:51:34;95243.03;;;17.82;65.74
7754;BME280;3921;42.266;23.122;2023-05-22T06:54:01;95235.63;;;17.75;65.80
7754;BME280;3921;42.266;23.122;2023-05-22T06:56:31;95179.03;;;17.48;66.26
7754;BME280;3921;42.266;23.122;2023-05-22T06:58:58;95013.63;;;16.46;66.33
7754;BME280;3921;42.266;23.122;2023-05-22T07:01:26;94871.41;;;15.60;66.37
7754;BME280;3921;42.266;23.122;2023-05-22T07:03:56;94891.50;;;15.65;66.51
7754;BME280;3921;42.266;23.122;2023-05-22T07:06:26;95344.78;;;18.46;65.55
7754;BME280;3921;42.266;23.122;2023-05-22T07:14:11;95091.56;;;17.12;65.84
7754;BME280;3921;42.266;23.122;2023-05-22T07:16:38;95213.84;;;17.92;66.26
7754;BME280;3921;42.266;23.122;2023-05-22T07:19:06;94923.69;;;16.10;66.85
7754;BME280;3921;42.266;23.122;2023-05-22T07:21:35;95312.09;;;18.58;66.60
7754;BME280;3921;42.266;23.122;2023-05-22T07:24:22;94929.09;;;16.24;66.35
7754;BME280;3921;42.266;23.122;2023-05-22T07:27:06;94887.16;;;15.92;65.83
7754;BME280;3921;42.266;23.122;2023-05-22T07:32:41;94863.03;;;15.82;65.79
7754;BME280;3921;42.266;23.122;2023-05-22T07:35:09;94842.31;;;15.72;66.77
7754;BME280;3921;42.266;23.122;2023-05-22T07:37:50;94876.28;;;15.90;66.95
7754;BME280;3921;42.266;23.122;2023-05-22T07:40:19;94840.69;;;15.93;63.08
7754;BME280;3921;42.266;23.122;2023-05-22T07:42:50;94858.25;;;15.98;61.51
7754;BME280;3921;42.266;23.122;2023-05-22T07:45:28;94964.13;;;16.82;63.66
7754;BME280;3921;42.266;23.122;2023-05-22T07:48:03;94894.34;;;16.26;63.35
7754;BME280;3921;42.266;23.122;2023-05-22T07:50:30;95061.03;;;17.35;63.23
7754;BME280;3921;42.266;23.122;2023-05-22T07:52:58;94874.25;;;16.22;60.87
7754;BME280;3921;42.266;23.122;2023-05-22T07:55:25;94884.53;;;16.17;58.00
7754;BME280;3921;42.266;23.122;2023-05-22T07:57:52;94961.63;;;16.80;57.75
7754;BME280;3921;42.266;23.122;2023-05-22T08:00:20;94992.66;;;17.09;55.96
7754;BME280;3921;42.266;23.122;2023-05-22T08:02:48;95027.19;;;17.35;56.82
7754;BME280;3921;42.266;23.122;2023-05-22T08:05:17;95125.09;;;18.08;56.83
7754;BME280;3921;42.266;23.122;2023-05-22T08:07:44;94753.38;;;15.80;54.90
7754;BME280;3921;42.266;23.122;2023-05-22T08:10:14;95283.16;;;19.22;53.32
7754;BME280;3921;42.266;23.122;2023-05-22T08:12:42;95041.69;;;17.53;53.95
7754;BME280;3921;42.266;23.122;2023-05-22T08:15:11;94804.16;;;16.20;55.20
7754;BME280;3921;42.266;23.122;2023-05-22T08:17:51;94963.28;;;17.03;54.81
7754;BME280;3921;42.266;23.122;2023-05-22T08:20:56;94845.72;;;16.60;54.20
7754;BME280;3921;42.266;23.122;2023-05-22T08:23:26;94867.38;;;16.69;54.35
7754;BME280;3921;42.266;23.122;2023-05-22T08:29:01;95003.59;;;17.75;52.51
7754;BME280;3921;42.266;23.122;2023-05-22T08:31:33;94917.81;;;17.19;53.46
7754;BME280;3921;42.266;23.122;2023-05-22T08:34:02;94838.59;;;16.90;52.70
7754;BME280;3921;42.266;23.122;2023-05-22T09:07:49;94863.81;;;17.15;50.89
7754;BME280;3921;42.266;23.122;2023-05-22T09:17:28;95017.34;;;18.10;51.21
7754;BME280;3921;42.266;23.122;2023-05-22T09:41:08;94934.78;;;18.19;49.83
7754;BME280;3921;42.266;23.122;2023-05-22T09:43:56;94809.03;;;17.49;50.35
7754;BME280;3921;42.266;23.122;2023-05-22T09:46:38;95093.22;;;19.35;49.61
7754;BME280;3921;42.266;23.122;2023-05-22T09:49:53;94888.66;;;18.08;48.66
7754;BME280;3921;42.266;23.122;2023-05-22T09:53:02;94935.16;;;18.28;48.68
7754;BME280;3921;42.266;23.122;2023-05-22T10:24:39;94871.47;;;18.31;47.47
7754;BME280;3921;42.266;23.122;2023-05-22T10:27:18;95063.34;;;19.39;45.12
7754;BME280;3921;42.266;23.122;2023-05-22T10:30:20;94844.63;;;18.07;45.91
7754;BME280;3921;42.266;23.122;2023-05-22T10:33:02;94838.34;;;18.33;45.17
7754;BME280;3921;42.266;23.122;2023-05-22T10:35:37;94853.78;;;18.47;46.77
7754;BME280;3921;42.266;23.122;2023-05-22T10:38:29;94913.84;;;18.88;44.76
7754;BME280;3921;42.266;23.122;2023-05-22T10:55:28;94863.56;;;18.74;44.84
7754;BME280;3921;42.266;23.122;2023-05-22T11:17:51;95266.44;;;21.34;45.92
7754;BME280;3921;42.266;23.122;2023-05-22T11:37:13;94846.47;;;18.58;46.86
7754;BME280;3921;42.266;23.122;2023-05-22T11:39:42;94818.88;;;18.68;47.31
7754;BME280;3921;42.266;23.122;2023-05-22T11:42:09;94963.38;;;19.51;45.75
7754;BME280;3921;42.266;23.122;2023-05-22T11:44:38;94826.88;;;18.61;47.09
7754;BME280;3921;42.266;23.122;2023-05-22T12:16:50;94795.59;;;18.22;51.49
7754;BME280;3921;42.266;23.122;2023-05-22T12:19:24;95147.63;;;20.41;51.89
7754;BME280;3921;42.266;23.122;2023-05-22T12:22:07;94851.09;;;18.50;52.27
7754;BME280;3921;42.266;23.122;2023-05-22T12:24:55;94762.38;;;17.70;52.47
7754;BME280;3921;42.266;23.122;2023-05-22T12:27:33;94965.84;;;19.18;52.46
7754;BME280;3921;42.266;23.122;2023-05-22T12:32:57;94843.22;;;18.00;54.22
7754;BME280;3921;42.266;23.122;2023-05-22T14:30:56;95042.41;;;20.03;50.72
7754;BME280;3921;42.266;23.122;2023-05-22T14:33:24;95033.72;;;20.07;50.37
7754;BME280;3921;42.266;23.122;2023-05-22T14:36:08;94747.00;;;18.28;50.34
7754;BME280;3921;42.266;23.122;2023-05-22T14:47:30;94782.00;;;18.41;49.34
7754;BME280;3921;42.266;23.122;2023-05-22T14:50:20;95162.81;;;20.95;49.62
7754;BME280;3921;42.266;23.122;2023-05-22T14:52:52;94945.03;;;19.45;49.31
7754;BME280;3921;42.266;23.122;2023-05-22T14:55:43;94786.22;;;18.42;50.05
7754;BME280;3921;42.266;23.122;2023-05-22T15:01:00;94726.22;;;18.20;50.13
7754;BME280;3921;42.266;23.122;2023-05-22T15:03:39;94916.94;;;19.29;49.32
7754;BME280;3921;42.266;23.122;2023-05-22T15:06:25;94705.44;;;17.93;49.37
7754;BME280;3921;42.266;23.122;2023-05-22T17:28:53;95243.59;;;19.53;61.00
7754;BME280;3921;42.266;23.122;2023-05-22T17:31:47;94823.06;;;16.78;60.92
7754;BME280;3921;42.266;23.122;2023-05-22T17:34:30;95066.41;;;18.33;61.54
7754;BME280;3921;42.266;23.122;2023-05-22T17:37:21;95261.06;;;19.42;61.76
7754;BME280;3921;42.266;23.122;2023-05-22T17:40:01;94990.75;;;17.78;61.73
7754;BME280;3921;42.266;23.122;2023-05-22T17:42:42;94850.53;;;16.88;62.08
7754;BME280;3921;42.266;23.122;2023-05-22T17:51:43;94922.22;;;17.15;62.02
7754;BME280;3921;42.266;23.122;2023-05-22T17:54:32;94849.06;;;16.61;61.92
7754;BME280;3921;42.266;23.122;2023-05-22T17:57:13;94802.88;;;16.10;61.78
7754;BME280;3921;42.266;23.122;2023-05-22T17:59:42;94795.81;;;16.18;62.16
7754;BME280;3921;42.266;23.122;2023-05-22T18:56:35;95114.19;;;17.18;61.35
7754;BME280;3921;42.266;23.122;2023-05-22T18:59:30;94927.22;;;16.06;61.46
7754;BME280;3921;42.266;23.122;2023-05-22T19:01:58;94861.13;;;15.40;61.87
7754;BME280;3921;42.266;23.122;2023-05-22T19:04:25;94809.53;;;15.19;62.03
7754;BME280;3921;42.266;23.122;2023-05-22T19:07:05;94904.63;;;15.76;62.00
7754;BME280;3921;42.266;23.122;2023-05-22T19:09:46;94894.75;;;15.69;61.67
7754;BME280;3921;42.266;23.122;2023-05-22T19:15:10;95374.03;;;18.36;62.73
7754;BME280;3921;42.266;23.122;2023-05-22T19:25:58;94918.81;;;15.30;63.70
7754;BME280;3921;42.266;23.122;2023-05-22T19:28:26;94937.34;;;15.31;63.99
7754;BME280;3921;42.266;23.122;2023-05-22T19:31:32;94886.19;;;14.98;64.17
7754;BME280;3921;42.266;23.122;2023-05-22T19:34:24;94921.34;;;15.05;64.53
7754;BME280;3921;42.266;23.122;2023-05-22T19:36:58;94979.63;;;15.54;65.20
7754;BME280;3921;42.266;23.122;2023-05-22T19:39:26;94947.94;;;15.17;65.76
7754;BME280;3921;42.266;23.122;2023-05-22T19:41:53;94961.13;;;15.27;66.35
7754;BME280;3921;42.266;23.122;2023-05-22T19:44:22;94931.66;;;14.99;65.89
7754;BME280;3921;42.266;23.122;2023-05-22T19:58:58;94975.69;;;14.94;66.75
7754;BME280;3921;42.266;23.122;2023-05-22T20:01:25;95030.03;;;15.35;66.79
7754;BME280;3921;42.266;23.122;2023-05-22T20:04:03;95254.28;;;16.79;67.04
7754;BME280;3921;42.266;23.122;2023-05-22T20:06:45;94997.47;;;14.98;67.41
7754;BME280;3921;42.266;23.122;2023-05-22T20:09:14;94977.66;;;14.84;67.62
7754;BME280;3921;42.266;23.122;2023-05-22T20:11:49;95003.47;;;15.22;67.95
7754;BME280;3921;42.266;23.122;2023-05-22T20:14:19;94961.94;;;14.74;68.22
7754;BME280;3921;42.266;23.122;2023-05-22T20:16:49;94971.25;;;14.74;68.10
7754;BME280;3921;42.266;23.122;2023-05-22T20:19:34;94989.91;;;14.70;67.73
7754;BME280;3921;42.266;23.122;2023-05-22T20:22:27;95451.28;;;17.60;68.37
7754;BME280;3921;42.266;23.122;2023-05-22T20:25:13;95424.13;;;17.62;68.03
7754;BME280;3921;42.266;23.122;2023-05-22T20:28:04;94987.88;;;14.81;68.10
7754;BME280;3921;42.266;23.122;2023-05-22T20:30:58;95004.06;;;15.03;67.57
7754;BME280;3921;42.266;23.122;2023-05-22T20:33:27;94972.31;;;14.93;67.40
7754;BME280;3921;42.266;23.122;2023-05-22T20:36:01;95018.03;;;15.15;67.23
7754;BME280;3921;42.266;23.122;2023-05-22T20:38:55;95447.28;;;17.79;67.00
7754;BME280;3921;42.266;23.122;2023-05-22T20:41:39;94955.31;;;14.98;66.50
7754;BME280;3921;42.266;23.122;2023-05-22T20:44:23;94956.41;;;14.90;66.61
7754;BME280;3921;42.266;23.122;2023-05-22T20:47:30;94996.44;;;15.31;66.42
7754;BME280;3921;42.266;23.122;2023-05-22T20:50:02;95002.66;;;15.21;65.89
7754;BME280;3921;42.266;23.122;2023-05-22T20:53:09;94919.78;;;15.01;65.02
7754;BME280;3921;42.266;23.122;2023-05-22T20:55:37;95000.47;;;15.37;65.45
7754;BME280;3921;42.266;23.122;2023-05-22T21:00:49;94969.84;;;15.18;65.43
7754;BME280;3921;42.266;23.122;2023-05-22T21:03:43;95281.78;;;17.16;65.25
7754;BME280;3921;42.266;23.122;2023-05-22T21:06:10;94982.06;;;15.32;64.94
7754;BME280;3921;42.266;23.122;2023-05-22T21:08:37;94972.91;;;15.28;64.28
7754;BME280;3921;42.266;23.122;2023-05-22T21:11:04;95016.09;;;15.48;64.34
7754;BME280;3921;42.266;23.122;2023-05-22T21:13:32;95215.47;;;16.77;64.03
7754;BME280;3921;42.266;23.122;2023-05-22T21:16:02;94983.72;;;15.33;63.50
7754;BME280;3921;42.266;23.122;2023-05-22T21:18:31;94892.81;;;15.00;63.37
7754;BME280;3921;42.266;23.122;2023-05-22T21:21:00;94966.28;;;15.24;62.54
7754;BME280;3921;42.266;23.122;2023-05-22T21:23:27;94969.50;;;15.29;62.49
7754;BME280;3921;42.266;23.122;2023-05-22T21:25:57;94989.34;;;15.41;62.31
7754;BME280;3921;42.266;23.122;2023-05-22T21:28:25;95209.16;;;16.89;62.77
7754;BME280;3921;42.266;23.122;2023-05-22T21:30:52;95339.69;;;17.55;62.71
7754;BME280;3921;42.266;23.122;2023-05-22T21:33:22;94904.75;;;14.97;61.60
7754;BME280;3921;42.266;23.122;2023-05-22T21:35:50;95068.34;;;15.79;61.72
7754;BME280;3921;42.266;23.122;2023-05-22T21:38:19;95152.28;;;16.44;61.44
7754;BME280;3921;42.266;23.122;2023-05-22T21:40:47;95009.56;;;15.43;60.94
7754;BME280;3921;42.266;23.122;2023-05-22T21:43:15;94979.53;;;15.32;61.34
7754;BME280;3921;42.266;23.122;2023-05-22T21:45:42;94963.06;;;15.19;61.35
7754;BME280;3921;42.266;23.122;2023-05-22T21:48:10;95013.88;;;15.39;61.70
7754;BME280;3921;42.266;23.122;2023-05-22T21:50:38;94946.44;;;15.11;61.88
7754;BME280;3921;42.266;23.122;2023-05-22T21:53:05;94974.94;;;15.43;60.76
7754;BME280;3921;42.266;23.122;2023-05-22T21:55:35;95278.06;;;17.27;60.50
7754;BME280;3921;42.266;23.122;2023-05-22T21:58:05;94990.56;;;15.56;60.25
7754;BME280;3921;42.266;23.122;2023-05-22T22:00:32;95165.50;;;16.29;61.35
7754;BME280;3921;42.266;23.122;2023-05-22T22:02:59;95033.75;;;15.78;62.28
7754;BME280;3921;42.266;23.122;2023-05-22T22:05:26;95375.41;;;17.99;62.89
7754;BME280;3921;42.266;23.122;2023-05-22T22:07:53;94991.16;;;15.64;62.71
7754;BME280;3921;42.266;23.122;2023-05-22T22:10:21;95183.53;;;16.71;62.21
7754;BME280;3921;42.266;23.122;2023-05-22T22:12:49;95022.97;;;15.71;62.45
7754;BME280;3921;42.266;23.122;2023-05-22T22:15:17;95001.66;;;15.52;61.49
7754;BME280;3921;42.266;23.122;2023-05-22T22:17:44;95273.53;;;17.35;62.12
7754;BME280;3921;42.266;23.122;2023-05-22T22:20:12;95247.91;;;17.17;61.83
7754;BME280;3921;42.266;23.122;2023-05-22T22:22:39;95139.13;;;16.35;61.83
7754;BME280;3921;42.266;23.122;2023-05-22T22:25:07;95401.16;;;18.13;61.99
7754;BME280;3921;42.266;23.122;2023-05-22T22:27:35;95300.34;;;17.42;61.96
7754;BME280;3921;42.266;23.122;2023-05-22T22:30:05;95031.31;;;15.75;62.04
7754;BME280;3921;42.266;23.122;2023-05-22T22:32:32;94982.00;;;15.58;62.07
7754;BME280;3921;42.266;23.122;2023-05-22T22:35:00;94972.25;;;15.48;62.17
7754;BME280;3921;42.266;23.122;2023-05-22T22:37:28;95329.03;;;17.69;62.37
7754;BME280;3921;42.266;23.122;2023-05-22T22:39:55;95411.09;;;18.19;62.68
7754;BME280;3921;42.266;23.122;2023-05-22T22:42:22;95158.34;;;16.65;63.08
7754;BME280;3921;42.266;23.122;2023-05-22T22:44:51;95109.88;;;16.25;62.59
7754;BME280;3921;42.266;23.122;2023-05-22T22:47:20;94970.72;;;15.44;62.98
7754;BME280;3921;42.266;23.122;2023-05-22T22:49:47;95216.00;;;16.87;63.10
7754;BME280;3921;42.266;23.122;2023-05-22T22:52:14;95007.34;;;15.58;63.23
7754;BME280;3921;42.266;23.122;2023-05-22T22:54:41;95108.69;;;16.35;63.19
7754;BME280;3921;42.266;23.122;2023-05-22T22:57:08;95291.41;;;17.32;63.20
7754;BME280;3921;42.266;23.122;2023-05-22T22:59:36;95140.19;;;16.53;62.74
7754;BME280;3921;42.266;23.122;2023-05-22T23:02:03;94990.69;;;15.51;62.25
7754;BME280;3921;42.266;23.122;2023-05-22T23:04:32;95267.22;;;17.21;62.08
7754;BME280;3921;42.266;23.122;2023-05-22T23:06:59;95299.75;;;17.35;62.39
7754;BME280;3921;42.266;23.122;2023-05-22T23:09:26;95211.13;;;16.81;62.46
7754;BME280;3921;42.266;23.122;2023-05-22T23:11:53;95353.41;;;17.74;62.93
7754;BME280;3921;42.266;23.122;2023-05-22T23:14:20;95240.34;;;16.91;62.79
7754;BME280;3921;42.266;23.122;2023-05-22T23:16:49;95091.34;;;15.98;62.76
7754;BME280;3921;42.266;23.122;2023-05-22T23:19:16;95164.72;;;16.52;62.44
7754;BME280;3921;42.266;23.122;2023-05-22T23:21:45;95251.41;;;17.13;63.60
7754;BME280;3921;42.266;23.122;2023-05-22T23:24:12;95165.44;;;16.56;64.29
7754;BME280;3921;42.266;23.122;2023-05-22T23:26:48;95183.13;;;16.57;64.88
7754;BME280;3921;42.266;23.122;2023-05-22T23:29:17;95048.47;;;15.66;64.77
7754;BME280;3921;42.266;23.122;2023-05-22T23:31:44;95158.53;;;16.36;65.23
7754;BME280;3921;42.266;23.122;2023-05-22T23:34:13;95250.38;;;16.70;65.54
7754;BME280;3921;42.266;23.122;2023-05-22T23:36:45;95190.59;;;16.62;64.83
7754;BME280;3921;42.266;23.122;2023-05-22T23:39:12;94967.28;;;15.20;63.51
7754;BME280;3921;42.266;23.122;2023-05-22T23:41:41;94977.16;;;15.27;63.27
7754;BME280;3921;42.266;23.122;2023-05-22T23:44:09;94969.59;;;15.26;63.62
7754;BME280;3921;42.266;23.122;2023-05-22T23:46:37;95014.47;;;15.47;64.12
7754;BME280;3921;42.266;23.122;2023-05-22T23:49:05;94932.72;;;14.92;64.78
7754;BME280;3921;42.266;23.122;2023-05-22T23:51:34;95184.84;;;16.57;64.97
7754;BME280;3921;42.266;23.122;2023-05-22T23:54:04;94997.66;;;15.18;64.82
7754;BME280;3921;42.266;23.122;2023-05-22T23:56:32;95003.41;;;15.23;64.91
7754;BME280;3921;42.266;23.122;2023-05-22T23:59:02;95031.06;;;15.29;65.22
